sensor_id;sensor_type;location;lat;lon;timestamp;temperature;humidity
43561;DHT22;32305;46.410;17.394;2023-03-11T00:00:17;22.70;42.00
43561;DHT22;32305;46.410;17.394;2023-03-11T00:02:46;22.70;42.00
43561;DHT22;32305;46.410;17.394;2023-03-11T00:05:25;22.70;42.00
43561;DHT22;32305;46.410;17.394;2023-03-11T00:07:52;22.70;42.00
43561;DHT22;32305;46.410;17.394;2023-03-11T00:10:22;22.70;42.00
43561;DHT22;32305;46.410;17.394;2023-03-11T00:12:50;22.60;41.90
43561;DHT22;32305;46.410;17.394;2023-03-11T00:15:17;22.70;42.00
43561;DHT22;32305;46.410;17.394;2023-03-11T00:17:46;22.60;42.00
43561;DHT22;32305;46.410;17.394;2023-03-11T00:20:17;22.60;42.00
43561;DHT22;32305;46.410;17.394;2023-03-11T00:22:45;22.60;42.00
43561;DHT22;32305;46.410;17.394;2023-03-11T00:25:13;22.60;42.00
43561;DHT22;32305;46.410;17.394;2023-03-11T00:27:40;22.60;42.00
43561;DHT22;32305;46.410;17.394;2023-03-11T00:30:08;22.60;42.10
43561;DHT22;32305;46.410;17.394;2023-03-11T00:32:35;22.60;42.10
43561;DHT22;32305;46.410;17.394;2023-03-11T00:35:03;22.60;42.00
43561;DHT22;32305;46.410;17.394;2023-03-11T00:37:31;22.60;42.00
43561;DHT22;32305;46.410;17.394;2023-03-11T00:39:58;22.60;42.00
43561;DHT22;32305;46.410;17.394;2023-03-11T00:42:25;22.60;42.10
43561;DHT22;32305;46.410;17.394;2023-03-11T00:44:52;22.50;42.00
43561;DHT22;32305;46.410;17.394;2023-03-11T00:47:19;22.50;42.00
43561;DHT22;32305;46.410;17.394;2023-03-11T00:49:46;22.60;42.10
43561;DHT22;32305;46.410;17.394;2023-03-11T00:52:13;22.60;42.10
43561;DHT22;32305;46.410;17.394;2023-03-11T00:54:40;22.50;42.00
43561;DHT22;32305;46.410;17.394;2023-03-11T00:57:07;22.60;42.10
43561;DHT22;32305;46.410;17.394;2023-03-11T00:59:35;22.50;42.00
43561;DHT22;32305;46.410;17.394;2023-03-11T01:02:02;22.50;42.00
43561;DHT22;32305;46.410;17.394;2023-03-11T01:04:29;22.50;42.00
43561;DHT22;32305;46.410;17.394;2023-03-11T01:06:56;22.50;42.00
43561;DHT22;32305;46.410;17.394;2023-03-11T01:09:23;22.50;42.00
43561;DHT22;32305;46.410;17.394;2023-03-11T01:11:51;22.50;42.10
43561;DHT22;32305;46.410;17.394;2023-03-11T01:14:18;22.50;42.00
43561;DHT22;32305;46.410;17.394;2023-03-11T01:16:45;22.50;42.10
43561;DHT22;32305;46.410;17.394;2023-03-11T01:19:12;22.50;42.10
43561;DHT22;32305;46.410;17.394;2023-03-11T01:21:39;22.50;42.10
43561;DHT22;32305;46.410;17.394;2023-03-11T01:24:06;22.50;42.10
43561;DHT22;32305;46.410;17.394;2023-03-11T01:26:33;22.50;42.10
43561;DHT22;32305;46.410;17.394;2023-03-11T01:29:00;22.40;42.00
43561;DHT22;32305;46.410;17.394;2023-03-11T01:31:27;22.40;42.10
43561;DHT22;32305;46.410;17.394;2023-03-11T01:33:55;22.40;42.10
43561;DHT22;32305;46.410;17.394;2023-03-11T01:36:22;22.40;42.00
43561;DHT22;32305;46.410;17.394;2023-03-11T01:38:49;22.40;42.10
43561;DHT22;32305;46.410;17.394;2023-03-11T01:41:16;22.40;42.10
43561;DHT22;32305;46.410;17.394;2023-03-11T01:43:49;22.40;42.10
43561;DHT22;32305;46.410;17.394;2023-03-11T01:46:24;22.40;42.10
43561;DHT22;32305;46.410;17.394;2023-03-11T01:48:56;22.40;42.10
43561;DHT22;32305;46.410;17.394;2023-03-11T01:51:43;22.40;42.10
43561;DHT22;32305;46.410;17.394;2023-03-11T01:54:15;22.40;42.10
43561;DHT22;32305;46.410;17.394;2023-03-11T01:56:44;22.40;42.10
43561;DHT22;32305;46.410;17.394;2023-03-11T01:59:16;22.40;42.00
43561;DHT22;32305;46.410;17.394;2023-03-11T02:02:04;22.40;42.10
43561;DHT22;32305;46.410;17.394;2023-03-11T02:04:33;22.40;42.00
43561;DHT22;32305;46.410;17.394;2023-03-11T02:07:02;22.40;42.00
43561;DHT22;32305;46.410;17.394;2023-03-11T02:09:30;22.40;42.00
43561;DHT22;32305;46.410;17.394;2023-03-11T02:11:57;22.40;42.00
43561;DHT22;32305;46.410;17.394;2023-03-11T02:14:25;22.40;42.00
43561;DHT22;32305;46.410;17.394;2023-03-11T02:16:54;22.40;42.00
43561;DHT22;32305;46.410;17.394;2023-03-11T02:19:50;22.40;42.00
43561;DHT22;32305;46.410;17.394;2023-03-11T02:22:16;22.40;42.00
43561;DHT22;32305;46.410;17.394;2023-03-11T02:25:04;22.40;42.00
43561;DHT22;32305;46.410;17.394;2023-03-11T02:27:38;22.40;42.00
43561;DHT22;32305;46.410;17.394;2023-03-11T02:30:09;22.40;42.00
43561;DHT22;32305;46.410;17.394;2023-03-11T02:32:36;22.40;42.00
43561;DHT22;32305;46.410;17.394;2023-03-11T02:35:04;22.40;41.90
43561;DHT22;32305;46.410;17.394;2023-03-11T02:37:32;22.40;42.00
43561;DHT22;32305;46.410;17.394;2023-03-11T02:43:09;22.40;42.00
43561;DHT22;32305;46.410;17.394;2023-03-11T02:45:39;22.40;42.00
43561;DHT22;32305;46.410;17.394;2023-03-11T02:48:08;22.40;42.00
43561;DHT22;32305;46.410;17.394;2023-03-11T02:50:36;22.30;41.90
43561;DHT22;32305;46.410;17.394;2023-03-11T02:53:04;22.30;41.90
43561;DHT22;32305;46.410;17.394;2023-03-11T02:55:32;22.30;42.50
43561;DHT22;32305;46.410;17.394;2023-03-11T02:57:59;22.30;41.90
43561;DHT22;32305;46.410;17.394;2023-03-11T03:00:27;22.40;41.90
43561;DHT22;32305;46.410;17.394;2023-03-11T03:02:54;22.30;42.40
43561;DHT22;32305;46.410;17.394;2023-03-11T03:05:21;22.40;41.90
43561;DHT22;32305;46.410;17.394;2023-03-11T03:07:50;22.30;41.90
43561;DHT22;32305;46.410;17.394;2023-03-11T03:10:18;22.30;41.90
43561;DHT22;32305;46.410;17.394;2023-03-11T03:12:45;22.30;41.90
43561;DHT22;32305;46.410;17.394;2023-03-11T03:15:13;22.30;41.90
43561;DHT22;32305;46.410;17.394;2023-03-11T03:17:41;22.30;41.90
43561;DHT22;32305;46.410;17.394;2023-03-11T03:20:10;22.30;42.00
43561;DHT22;32305;46.410;17.394;2023-03-11T03:22:39;22.30;41.90
43561;DHT22;32305;46.410;17.394;2023-03-11T03:25:07;22.30;41.90
43561;DHT22;32305;46.410;17.394;2023-03-11T03:27:34;22.30;41.90
43561;DHT22;32305;46.410;17.394;2023-03-11T03:30:03;22.30;41.90
43561;DHT22;32305;46.410;17.394;2023-03-11T03:32:30;22.30;41.90
43561;DHT22;32305;46.410;17.394;2023-03-11T03:34:57;22.30;41.90
43561;DHT22;32305;46.410;17.394;2023-03-11T03:37:26;22.30;41.90
43561;DHT22;32305;46.410;17.394;2023-03-11T03:39:54;22.30;41.90
43561;DHT22;32305;46.410;17.394;2023-03-11T03:42:21;22.30;41.90
43561;DHT22;32305;46.410;17.394;2023-03-11T03:44:51;22.30;41.80
43561;DHT22;32305;46.410;17.394;2023-03-11T03:47:21;22.30;41.80
43561;DHT22;32305;46.410;17.394;2023-03-11T03:49:48;22.30;41.80
43561;DHT22;32305;46.410;17.394;2023-03-11T03:52:15;22.30;41.80
43561;DHT22;32305;46.410;17.394;2023-03-11T03:54:42;22.30;41.80
43561;DHT22;32305;46.410;17.394;2023-03-11T03:57:09;22.30;41.80
43561;DHT22;32305;46.410;17.394;2023-03-11T03:59:36;22.30;41.80
43561;DHT22;32305;46.410;17.394;2023-03-11T04:02:04;22.30;41.80
43561;DHT22;32305;46.410;17.394;2023-03-11T04:04:31;22.30;42.40
43561;DHT22;32305;46.410;17.394;2023-03-11T04:06:58;22.30;41.80
43561;DHT22;32305;46.410;17.394;2023-03-11T04:09:25;22.30;41.80
43561;DHT22;32305;46.410;17.394;2023-03-11T04:11:53;22.30;41.80
43561;DHT22;32305;46.410;17.394;2023-03-11T04:14:20;22.30;41.80
43561;DHT22;32305;46.410;17.394;2023-03-11T04:16:47;22.30;41.70
43561;DHT22;32305;46.410;17.394;2023-03-11T04:19:14;22.30;41.70
43561;DHT22;32305;46.410;17.394;2023-03-11T04:21:41;22.30;41.70
43561;DHT22;32305;46.410;17.394;2023-03-11T04:24:08;22.30;42.20
43561;DHT22;32305;46.410;17.394;2023-03-11T04:26:35;22.30;41.70
43561;DHT22;32305;46.410;17.394;2023-03-11T04:29:02;22.30;41.70
43561;DHT22;32305;46.410;17.394;2023-03-11T04:31:30;22.30;41.60
43561;DHT22;32305;46.410;17.394;2023-03-11T04:33:57;22.30;41.60
43561;DHT22;32305;46.410;17.394;2023-03-11T04:36:24;22.30;41.60
43561;DHT22;32305;46.410;17.394;2023-03-11T04:38:51;22.30;41.60
43561;DHT22;32305;46.410;17.394;2023-03-11T04:41:18;22.30;41.70
43561;DHT22;32305;46.410;17.394;2023-03-11T04:43:45;22.30;41.70
43561;DHT22;32305;46.410;17.394;2023-03-11T04:46:12;22.30;41.70
43561;DHT22;32305;46.410;17.394;2023-03-11T04:48:39;22.30;41.70
43561;DHT22;32305;46.410;17.394;2023-03-11T04:51:07;22.30;41.70
43561;DHT22;32305;46.410;17.394;2023-03-11T04:53:34;22.30;41.60
43561;DHT22;32305;46.410;17.394;2023-03-11T04:56:01;22.30;41.60
43561;DHT22;32305;46.410;17.394;2023-03-11T04:58:28;22.30;41.50
43561;DHT22;32305;46.410;17.394;2023-03-11T05:00:55;22.30;41.50
43561;DHT22;32305;46.410;17.394;2023-03-11T05:03:22;22.30;41.50
43561;DHT22;32305;46.410;17.394;2023-03-11T05:05:50;22.30;41.50
43561;DHT22;32305;46.410;17.394;2023-03-11T05:08:18;22.30;41.50
43561;DHT22;32305;46.410;17.394;2023-03-11T05:10:45;22.30;41.50
43561;DHT22;32305;46.410;17.394;2023-03-11T05:13:13;22.30;41.50
43561;DHT22;32305;46.410;17.394;2023-03-11T05:15:40;22.30;41.50
43561;DHT22;32305;46.410;17.394;2023-03-11T05:18:08;22.30;41.50
43561;DHT22;32305;46.410;17.394;2023-03-11T05:20:35;22.20;41.50
43561;DHT22;32305;46.410;17.394;2023-03-11T05:23:03;22.30;41.50
43561;DHT22;32305;46.410;17.394;2023-03-11T05:25:30;22.20;41.50
43561;DHT22;32305;46.410;17.394;2023-03-11T05:27:57;22.20;41.50
43561;DHT22;32305;46.410;17.394;2023-03-11T05:30:24;22.20;41.50
43561;DHT22;32305;46.410;17.394;2023-03-11T05:32:51;22.20;41.50
43561;DHT22;32305;46.410;17.394;2023-03-11T05:35:18;22.20;41.50
43561;DHT22;32305;46.410;17.394;2023-03-11T05:37:47;22.20;41.40
43561;DHT22;32305;46.410;17.394;2023-03-11T05:40:15;22.20;41.30
43561;DHT22;32305;46.410;17.394;2023-03-11T05:42:43;22.10;41.20
43561;DHT22;32305;46.410;17.394;2023-03-11T05:45:10;22.10;41.20
43561;DHT22;32305;46.410;17.394;2023-03-11T05:47:37;22.10;41.20
43561;DHT22;32305;46.410;17.394;2023-03-11T05:50:05;22.10;41.30
43561;DHT22;32305;46.410;17.394;2023-03-11T05:52:32;22.00;41.30
43561;DHT22;32305;46.410;17.394;2023-03-11T05:54:59;22.00;41.30
43561;DHT22;32305;46.410;17.394;2023-03-11T05:57:26;22.00;41.30
43561;DHT22;32305;46.410;17.394;2023-03-11T05:59:54;22.00;41.30
43561;DHT22;32305;46.410;17.394;2023-03-11T06:02:21;22.00;41.20
43561;DHT22;32305;46.410;17.394;2023-03-11T06:04:49;22.00;41.10
43561;DHT22;32305;46.410;17.394;2023-03-11T06:07:16;22.00;41.10
43561;DHT22;32305;46.410;17.394;2023-03-11T06:09:43;22.00;41.00
43561;DHT22;32305;46.410;17.394;2023-03-11T06:12:10;22.00;41.00
43561;DHT22;32305;46.410;17.394;2023-03-11T06:14:37;22.00;41.00
43561;DHT22;32305;46.410;17.394;2023-03-11T06:17:04;22.00;41.00
43561;DHT22;32305;46.410;17.394;2023-03-11T06:19:31;22.00;40.90
43561;DHT22;32305;46.410;17.394;2023-03-11T06:21:59;22.10;40.90
43561;DHT22;32305;46.410;17.394;2023-03-11T06:24:26;22.10;40.90
43561;DHT22;32305;46.410;17.394;2023-03-11T06:26:53;22.10;40.80
43561;DHT22;32305;46.410;17.394;2023-03-11T06:29:20;22.10;40.70
43561;DHT22;32305;46.410;17.394;2023-03-11T06:31:50;22.10;40.70
43561;DHT22;32305;46.410;17.394;2023-03-11T06:34:17;22.10;40.60
43561;DHT22;32305;46.410;17.394;2023-03-11T06:36:44;22.10;40.60
43561;DHT22;32305;46.410;17.394;2023-03-11T06:39:12;22.10;40.50
43561;DHT22;32305;46.410;17.394;2023-03-11T06:41:41;22.20;40.50
43561;DHT22;32305;46.410;17.394;2023-03-11T06:44:09;22.20;40.50
43561;DHT22;32305;46.410;17.394;2023-03-11T06:46:37;22.20;40.40
43561;DHT22;32305;46.410;17.394;2023-03-11T06:49:05;22.20;40.30
43561;DHT22;32305;46.410;17.394;2023-03-11T06:51:32;22.20;40.30
43561;DHT22;32305;46.410;17.394;2023-03-11T06:54:00;22.20;40.20
43561;DHT22;32305;46.410;17.394;2023-03-11T06:56:27;22.30;40.20
43561;DHT22;32305;46.410;17.394;2023-03-11T06:58:54;22.30;40.20
43561;DHT22;32305;46.410;17.394;2023-03-11T07:01:24;22.30;40.10
43561;DHT22;32305;46.410;17.394;2023-03-11T07:03:51;22.30;40.10
43561;DHT22;32305;46.410;17.394;2023-03-11T07:06:21;22.30;40.00
43561;DHT22;32305;46.410;17.394;2023-03-11T07:08:50;22.30;39.90
43561;DHT22;32305;46.410;17.394;2023-03-11T07:11:21;22.40;39.90
43561;DHT22;32305;46.410;17.394;2023-03-11T07:13:49;22.40;39.90
43561;DHT22;32305;46.410;17.394;2023-03-11T07:16:18;22.40;39.80
43561;DHT22;32305;46.410;17.394;2023-03-11T07:18:48;22.40;39.70
43561;DHT22;32305;46.410;17.394;2023-03-11T07:21:20;22.40;39.60
43561;DHT22;32305;46.410;17.394;2023-03-11T07:23:52;22.50;39.60
43561;DHT22;32305;46.410;17.394;2023-03-11T07:26:20;22.50;39.50
43561;DHT22;32305;46.410;17.394;2023-03-11T07:28:47;22.50;39.40
43561;DHT22;32305;46.410;17.394;2023-03-11T07:31:17;22.60;39.40
43561;DHT22;32305;46.410;17.394;2023-03-11T07:33:46;22.60;39.20
43561;DHT22;32305;46.410;17.394;2023-03-11T07:36:15;22.70;39.20
43561;DHT22;32305;46.410;17.394;2023-03-11T07:38:43;22.70;39.10
43561;DHT22;32305;46.410;17.394;2023-03-11T07:41:12;22.70;39.00
43561;DHT22;32305;46.410;17.394;2023-03-11T07:43:40;22.70;39.00
43561;DHT22;32305;46.410;17.394;2023-03-11T07:46:13;22.70;38.80
43561;DHT22;32305;46.410;17.394;2023-03-11T07:48:43;22.80;39.40
43561;DHT22;32305;46.410;17.394;2023-03-11T07:51:19;22.90;38.80
43561;DHT22;32305;46.410;17.394;2023-03-11T07:53:51;22.90;38.70
43561;DHT22;32305;46.410;17.394;2023-03-11T07:56:19;22.90;38.60
43561;DHT22;32305;46.410;17.394;2023-03-11T07:58:46;23.00;38.50
43561;DHT22;32305;46.410;17.394;2023-03-11T08:01:16;23.00;38.40
43561;DHT22;32305;46.410;17.394;2023-03-11T08:03:45;23.00;38.40
43561;DHT22;32305;46.410;17.394;2023-03-11T08:06:17;23.10;38.30
43561;DHT22;32305;46.410;17.394;2023-03-11T08:08:45;23.10;38.20
43561;DHT22;32305;46.410;17.394;2023-03-11T08:11:13;23.20;38.10
43561;DHT22;32305;46.410;17.394;2023-03-11T08:13:42;23.20;37.90
43561;DHT22;32305;46.410;17.394;2023-03-11T08:16:12;23.30;37.90
43561;DHT22;32305;46.410;17.394;2023-03-11T08:18:40;23.30;37.80
43561;DHT22;32305;46.410;17.394;2023-03-11T08:21:10;23.30;37.60
43561;DHT22;32305;46.410;17.394;2023-03-11T08:23:37;23.40;37.60
43561;DHT22;32305;46.410;17.394;2023-03-11T08:26:07;23.40;37.50
43561;DHT22;32305;46.410;17.394;2023-03-11T08:28:34;23.50;37.40
43561;DHT22;32305;46.410;17.394;2023-03-11T08:31:02;23.50;37.30
43561;DHT22;32305;46.410;17.394;2023-03-11T08:33:37;23.50;37.20
43561;DHT22;32305;46.410;17.394;2023-03-11T08:36:04;23.60;37.10
43561;DHT22;32305;46.410;17.394;2023-03-11T08:38:32;23.60;36.90
43561;DHT22;32305;46.410;17.394;2023-03-11T08:40:59;23.60;36.80
43561;DHT22;32305;46.410;17.394;2023-03-11T08:43:26;23.60;36.70
43561;DHT22;32305;46.410;17.394;2023-03-11T08:45:54;23.70;36.60
43561;DHT22;32305;46.410;17.394;2023-03-11T08:48:21;23.70;36.50
43561;DHT22;32305;46.410;17.394;2023-03-11T08:50:51;23.70;36.40
43561;DHT22;32305;46.410;17.394;2023-03-11T08:53:21;23.70;36.30
43561;DHT22;32305;46.410;17.394;2023-03-11T08:55:50;23.70;36.20
43561;DHT22;32305;46.410;17.394;2023-03-11T08:58:18;23.70;36.10
43561;DHT22;32305;46.410;17.394;2023-03-11T09:00:46;23.70;36.10
43561;DHT22;32305;46.410;17.394;2023-03-11T09:03:13;23.70;36.00
43561;DHT22;32305;46.410;17.394;2023-03-11T09:05:40;23.70;35.90
43561;DHT22;32305;46.410;17.394;2023-03-11T09:08:08;23.80;35.80
43561;DHT22;32305;46.410;17.394;2023-03-11T09:10:35;23.80;35.70
43561;DHT22;32305;46.410;17.394;2023-03-11T09:13:02;23.80;35.60
43561;DHT22;32305;46.410;17.394;2023-03-11T09:15:29;23.80;35.50
43561;DHT22;32305;46.410;17.394;2023-03-11T09:17:56;23.80;35.30
43561;DHT22;32305;46.410;17.394;2023-03-11T09:20:23;23.80;35.30
43561;DHT22;32305;46.410;17.394;2023-03-11T09:22:50;23.90;35.20
43561;DHT22;32305;46.410;17.394;2023-03-11T09:25:17;23.90;35.10
43561;DHT22;32305;46.410;17.394;2023-03-11T09:27:44;23.90;35.00
43561;DHT22;32305;46.410;17.394;2023-03-11T09:30:12;23.90;34.90
43561;DHT22;32305;46.410;17.394;2023-03-11T09:32:39;23.90;34.80
43561;DHT22;32305;46.410;17.394;2023-03-11T09:35:06;24.00;34.70
43561;DHT22;32305;46.410;17.394;2023-03-11T09:37:34;24.00;34.60
43561;DHT22;32305;46.410;17.394;2023-03-11T09:40:02;24.10;34.50
43561;DHT22;32305;46.410;17.394;2023-03-11T09:42:53;24.10;34.30
43561;DHT22;32305;46.410;17.394;2023-03-11T09:45:27;24.10;34.10
43561;DHT22;32305;46.410;17.394;2023-03-11T09:48:14;24.10;33.90
43561;DHT22;32305;46.410;17.394;2023-03-11T09:50:52;24.20;34.00
43561;DHT22;32305;46.410;17.394;2023-03-11T09:53:40;24.20;34.00
43561;DHT22;32305;46.410;17.394;2023-03-11T09:56:17;24.20;34.00
43561;DHT22;32305;46.410;17.394;2023-03-11T09:58:51;24.20;33.80
43561;DHT22;32305;46.410;17.394;2023-03-11T10:01:27;24.30;33.70
43561;DHT22;32305;46.410;17.394;2023-03-11T10:04:03;24.30;33.60
43561;DHT22;32305;46.410;17.394;2023-03-11T10:06:33;24.30;33.60
43561;DHT22;32305;46.410;17.394;2023-03-11T10:12:13;24.30;33.40
43561;DHT22;32305;46.410;17.394;2023-03-11T10:18:29;24.30;33.00
43561;DHT22;32305;46.410;17.394;2023-03-11T10:21:16;24.30;33.10
43561;DHT22;32305;46.410;17.394;2023-03-11T10:24:20;24.30;33.10
43561;DHT22;32305;46.410;17.394;2023-03-11T10:26:55;24.40;32.90
43561;DHT22;32305;46.410;17.394;2023-03-11T10:29:37;24.40;32.70
43561;DHT22;32305;46.410;17.394;2023-03-11T10:32:23;24.40;32.60
43561;DHT22;32305;46.410;17.394;2023-03-11T10:35:05;24.40;32.40
43561;DHT22;32305;46.410;17.394;2023-03-11T10:37:43;24.40;32.40
43561;DHT22;32305;46.410;17.394;2023-03-11T10:40:34;24.40;32.20
43561;DHT22;32305;46.410;17.394;2023-03-11T10:43:13;24.40;32.20
43561;DHT22;32305;46.410;17.394;2023-03-11T10:45:42;24.40;32.20
43561;DHT22;32305;46.410;17.394;2023-03-11T10:48:16;24.40;32.00
43561;DHT22;32305;46.410;17.394;2023-03-11T10:51:08;24.40;32.10
43561;DHT22;32305;46.410;17.394;2023-03-11T10:53:56;24.40;31.90
43561;DHT22;32305;46.410;17.394;2023-03-11T10:56:38;24.40;31.90
43561;DHT22;32305;46.410;17.394;2023-03-11T10:59:29;24.40;31.80
43561;DHT22;32305;46.410;17.394;2023-03-11T11:02:07;24.40;31.30
43561;DHT22;32305;46.410;17.394;2023-03-11T11:04:45;24.30;31.20
43561;DHT22;32305;46.410;17.394;2023-03-11T11:07:34;24.40;31.30
43561;DHT22;32305;46.410;17.394;2023-03-11T11:10:16;24.30;31.00
43561;DHT22;32305;46.410;17.394;2023-03-11T11:13:15;24.30;31.30
43561;DHT22;32305;46.410;17.394;2023-03-11T11:15:53;24.30;31.20
43561;DHT22;32305;46.410;17.394;2023-03-11T11:18:24;24.30;31.10
43561;DHT22;32305;46.410;17.394;2023-03-11T11:20:59;24.30;31.00
43561;DHT22;32305;46.410;17.394;2023-03-11T11:23:39;24.20;30.80
43561;DHT22;32305;46.410;17.394;2023-03-11T11:26:23;24.20;30.70
43561;DHT22;32305;46.410;17.394;2023-03-11T11:29:19;24.20;30.40
43561;DHT22;32305;46.410;17.394;2023-03-11T11:31:46;24.20;31.00
43561;DHT22;32305;46.410;17.394;2023-03-11T11:34:33;24.20;30.30
43561;DHT22;32305;46.410;17.394;2023-03-11T11:37:03;24.20;30.50
43561;DHT22;32305;46.410;17.394;2023-03-11T11:39:46;24.20;30.40
43561;DHT22;32305;46.410;17.394;2023-03-11T11:42:23;24.20;30.40
43561;DHT22;32305;46.410;17.394;2023-03-11T11:44:59;24.10;30.30
43561;DHT22;32305;46.410;17.394;2023-03-11T11:47:38;24.10;30.20
43561;DHT22;32305;46.410;17.394;2023-03-11T11:50:13;24.10;30.20
43561;DHT22;32305;46.410;17.394;2023-03-11T11:52:43;24.10;30.00
43561;DHT22;32305;46.410;17.394;2023-03-11T11:55:23;24.10;30.00
43561;DHT22;32305;46.410;17.394;2023-03-11T11:57:50;24.10;30.00
43561;DHT22;32305;46.410;17.394;2023-03-11T12:00:23;24.10;30.00
43561;DHT22;32305;46.410;17.394;2023-03-11T12:03:20;24.10;30.00
43561;DHT22;32305;46.410;17.394;2023-03-11T12:05:57;24.10;29.80
43561;DHT22;32305;46.410;17.394;2023-03-11T12:08:46;24.10;29.90
43561;DHT22;32305;46.410;17.394;2023-03-11T12:11:23;24.10;29.90
43561;DHT22;32305;46.410;17.394;2023-03-11T12:14:11;24.10;29.80
43561;DHT22;32305;46.410;17.394;2023-03-11T12:16:58;24.00;29.60
43561;DHT22;32305;46.410;17.394;2023-03-11T12:20:02;24.10;29.60
43561;DHT22;32305;46.410;17.394;2023-03-11T12:23:01;24.00;29.60
43561;DHT22;32305;46.410;17.394;2023-03-11T12:25:59;24.10;30.00
43561;DHT22;32305;46.410;17.394;2023-03-11T12:28:46;24.00;29.60
43561;DHT22;32305;46.410;17.394;2023-03-11T12:31:15;24.00;29.70
43561;DHT22;32305;46.410;17.394;2023-03-11T12:33:46;24.00;29.70
43561;DHT22;32305;46.410;17.394;2023-03-11T12:36:29;24.00;29.60
43561;DHT22;32305;46.410;17.394;2023-03-11T12:38:58;24.00;29.60
43561;DHT22;32305;46.410;17.394;2023-03-11T12:41:32;24.00;29.40
43561;DHT22;32305;46.410;17.394;2023-03-11T12:44:21;24.00;29.50
43561;DHT22;32305;46.410;17.394;2023-03-11T12:47:22;24.00;29.40
43561;DHT22;32305;46.410;17.394;2023-03-11T12:49:51;24.00;29.30
43561;DHT22;32305;46.410;17.394;2023-03-11T12:52:26;24.00;29.40
43561;DHT22;32305;46.410;17.394;2023-03-11T12:55:28;24.00;29.30
43561;DHT22;32305;46.410;17.394;2023-03-11T12:58:04;24.00;29.30
43561;DHT22;32305;46.410;17.394;2023-03-11T13:01:16;24.00;29.30
43561;DHT22;32305;46.410;17.394;2023-03-11T13:03:59;24.00;29.30
43561;DHT22;32305;46.410;17.394;2023-03-11T13:07:06;24.00;29.30
43561;DHT22;32305;46.410;17.394;2023-03-11T13:09:38;24.00;29.20
43561;DHT22;32305;46.410;17.394;2023-03-11T13:12:39;24.00;29.30
43561;DHT22;32305;46.410;17.394;2023-03-11T13:15:28;24.00;29.40
43561;DHT22;32305;46.410;17.394;2023-03-11T13:18:00;24.00;29.30
43561;DHT22;32305;46.410;17.394;2023-03-11T13:20:43;24.00;29.30
43561;DHT22;32305;46.410;17.394;2023-03-11T13:23:28;24.00;29.10
43561;DHT22;32305;46.410;17.394;2023-03-11T13:26:13;24.00;29.10
43561;DHT22;32305;46.410;17.394;2023-03-11T13:29:03;24.00;29.10
43561;DHT22;32305;46.410;17.394;2023-03-11T13:34:49;24.00;29.20
43561;DHT22;32305;46.410;17.394;2023-03-11T13:37:41;24.00;29.10
43561;DHT22;32305;46.410;17.394;2023-03-11T13:40:32;24.00;29.10
43561;DHT22;32305;46.410;17.394;2023-03-11T13:43:02;24.00;28.80
43561;DHT22;32305;46.410;17.394;2023-03-11T13:45:32;24.00;28.80
43561;DHT22;32305;46.410;17.394;2023-03-11T13:48:06;24.00;28.80
43561;DHT22;32305;46.410;17.394;2023-03-11T13:50:40;24.00;28.80
43561;DHT22;32305;46.410;17.394;2023-03-11T13:53:18;24.00;28.80
43561;DHT22;32305;46.410;17.394;2023-03-11T13:55:47;24.00;28.80
43561;DHT22;32305;46.410;17.394;2023-03-11T13:58:20;24.00;28.80
43561;DHT22;32305;46.410;17.394;2023-03-11T14:00:52;24.00;28.80
43561;DHT22;32305;46.410;17.394;2023-03-11T14:03:20;23.90;28.80
43561;DHT22;32305;46.410;17.394;2023-03-11T14:05:55;23.90;28.70
43561;DHT22;32305;46.410;17.394;2023-03-11T14:08:27;23.90;28.80
43561;DHT22;32305;46.410;17.394;2023-03-11T14:11:00;23.90;28.70
43561;DHT22;32305;46.410;17.394;2023-03-11T14:13:30;23.90;28.70
43561;DHT22;32305;46.410;17.394;2023-03-11T14:16:22;23.90;28.80
43561;DHT22;32305;46.410;17.394;2023-03-11T14:19:05;23.90;28.80
43561;DHT22;32305;46.410;17.394;2023-03-11T14:21:34;23.90;28.80
43561;DHT22;32305;46.410;17.394;2023-03-11T14:24:02;23.90;28.80
43561;DHT22;32305;46.410;17.394;2023-03-11T14:26:31;23.90;28.80
43561;DHT22;32305;46.410;17.394;2023-03-11T14:29:07;23.90;28.70
43561;DHT22;32305;46.410;17.394;2023-03-11T14:31:41;23.90;28.60
43561;DHT22;32305;46.410;17.394;2023-03-11T14:34:19;23.90;28.50
43561;DHT22;32305;46.410;17.394;2023-03-11T14:36:52;23.90;28.50
43561;DHT22;32305;46.410;17.394;2023-03-11T14:39:34;23.90;28.40
43561;DHT22;32305;46.410;17.394;2023-03-11T14:42:21;23.90;28.40
43561;DHT22;32305;46.410;17.394;2023-03-11T14:45:11;23.90;28.40
43561;DHT22;32305;46.410;17.394;2023-03-11T14:47:53;23.90;28.40
43561;DHT22;32305;46.410;17.394;2023-03-11T14:50:28;23.80;28.40
43561;DHT22;32305;46.410;17.394;2023-03-11T14:53:11;23.90;28.90
43561;DHT22;32305;46.410;17.394;2023-03-11T14:55:53;23.80;28.30
43561;DHT22;32305;46.410;17.394;2023-03-11T14:58:38;23.80;28.20
43561;DHT22;32305;46.410;17.394;2023-03-11T15:01:13;23.80;28.20
43561;DHT22;32305;46.410;17.394;2023-03-11T15:04:10;23.70;28.10
43561;DHT22;32305;46.410;17.394;2023-03-11T15:06:41;23.70;28.20
43561;DHT22;32305;46.410;17.394;2023-03-11T15:09:15;23.70;28.40
43561;DHT22;32305;46.410;17.394;2023-03-11T15:11:55;23.70;28.70
43561;DHT22;32305;46.410;17.394;2023-03-11T15:14:32;23.70;28.70
43561;DHT22;32305;46.410;17.394;2023-03-11T15:17:16;23.60;28.70
43561;DHT22;32305;46.410;17.394;2023-03-11T15:20:03;23.60;28.80
43561;DHT22;32305;46.410;17.394;2023-03-11T15:22:39;23.60;29.30
43561;DHT22;32305;46.410;17.394;2023-03-11T15:25:17;23.60;28.90
43561;DHT22;32305;46.410;17.394;2023-03-11T15:27:45;23.50;29.00
43561;DHT22;32305;46.410;17.394;2023-03-11T15:30:26;23.40;29.00
43561;DHT22;32305;46.410;17.394;2023-03-11T15:32:54;23.40;29.10
43561;DHT22;32305;46.410;17.394;2023-03-11T15:35:27;23.40;29.10
43561;DHT22;32305;46.410;17.394;2023-03-11T15:38:19;23.40;29.10
43561;DHT22;32305;46.410;17.394;2023-03-11T15:40:58;23.40;29.20
43561;DHT22;32305;46.410;17.394;2023-03-11T15:43:31;23.40;29.20
43561;DHT22;32305;46.410;17.394;2023-03-11T15:46:01;23.40;29.30
43561;DHT22;32305;46.410;17.394;2023-03-11T15:48:29;23.40;29.30
43561;DHT22;32305;46.410;17.394;2023-03-11T15:50:58;23.40;29.30
43561;DHT22;32305;46.410;17.394;2023-03-11T15:53:27;23.30;29.70
43561;DHT22;32305;46.410;17.394;2023-03-11T15:56:02;23.30;29.30
43561;DHT22;32305;46.410;17.394;2023-03-11T15:58:35;23.30;29.30
43561;DHT22;32305;46.410;17.394;2023-03-11T16:01:04;23.30;29.30